Time;durP1;ratioP1;P1;durP2;ratioP2;P2;SDS_P1;SDS_P2;PMS_P1;PMS_P2;Temp;Humidity;BMP_temperature;BMP_pressure;BME280_temperature;BME280_humidity;BME280_pressure;Samples;Min_cycle;Max_cycle;Signal;HPM_P1;HPM_P2
2021/12/15 00:01:04;;;;;;;23.40;9.93;;;-0.70;99.90;;;;;;5015581;28;20179;-64
2021/12/15 00:03:30;;;;;;;30.33;9.63;;;-0.70;99.90;;;;;;5015671;28;20168;-56
2021/12/15 00:05:56;;;;;;;28.43;10.23;;;-0.70;99.90;;;;;;5014840;28;20232;-56
2021/12/15 00:08:22;;;;;;;23.83;10.03;;;-0.70;99.90;;;;;;5015068;28;20188;-64
2021/12/15 00:10:49;;;;;;;19.93;7.53;;;-0.70;99.90;;;;;;5015051;28;20169;-57
2021/12/15 00:13:17;;;;;;;34.20;10.90;;;-0.70;99.90;;;;;;4996626;28;20622;-57
2021/12/15 00:15:45;;;;;;;26.73;9.37;;;-0.70;99.90;;;;;;5014954;28;20179;-57
2021/12/15 00:18:12;;;;;;;24.07;9.40;;;-0.70;99.90;;;;;;5015458;28;20186;-54
2021/12/15 00:20:39;;;;;;;22.07;10.00;;;-0.70;99.90;;;;;;5014439;28;20307;-70
2021/12/15 00:23:06;;;;;;;24.20;8.43;;;-0.70;99.90;;;;;;5014888;28;20218;-57
2021/12/15 00:25:35;;;;;;;21.50;8.30;;;-0.70;99.90;;;;;;5014944;28;20176;-57
2021/12/15 00:28:01;;;;;;;18.23;8.20;;;-0.70;99.90;;;;;;5028512;28;20635;-56
2021/12/15 00:30:27;;;;;;;22.93;9.17;;;-0.70;99.90;;;;;;5016761;28;20194;-56
2021/12/15 00:32:53;;;;;;;23.50;8.63;;;-0.70;99.90;;;;;;5034643;28;20653;-55
2021/12/15 00:35:19;;;;;;;19.73;7.87;;;-0.70;99.90;;;;;;5034255;28;20180;-58
2021/12/15 00:37:46;;;;;;;20.13;8.07;;;-0.70;99.90;;;;;;5034327;28;20217;-58
2021/12/15 00:40:18;;;;;;;19.47;7.03;;;-0.70;99.90;;;;;;5034269;28;20271;-57
2021/12/15 00:42:44;;;;;;;15.23;5.83;;;-0.70;99.90;;;;;;5033804;28;20254;-59
2021/12/15 00:45:11;;;;;;;21.33;8.33;;;-0.60;99.90;;;;;;5034347;28;20172;-58
2021/12/15 00:47:37;;;;;;;17.27;4.87;;;-0.70;99.90;;;;;;5034204;28;20291;-56
2021/12/15 00:50:06;;;;;;;23.70;8.17;;;-0.60;99.90;;;;;;5033685;28;20191;-55
2021/12/15 00:52:37;;;;;;;19.00;7.80;;;-0.60;99.90;;;;;;5034260;28;20176;-62
2021/12/15 00:55:06;;;;;;;21.03;8.27;;;-0.60;99.90;;;;;;5034145;28;20187;-56
2021/12/15 00:57:32;;;;;;;16.73;7.13;;;-0.70;99.90;;;;;;5016278;28;20603;-57
2021/12/15 00:59:58;;;;;;;19.27;8.13;;;-0.60;99.90;;;;;;5033867;28;20191;-56
2021/12/15 01:02:24;;;;;;;18.87;7.50;;;-0.70;99.90;;;;;;5033937;28;20172;-63
2021/12/15 01:04:51;;;;;;;21.70;7.30;;;-0.70;99.90;;;;;;5033867;28;20180;-59
2021/12/15 01:07:17;;;;;;;19.10;6.90;;;-0.70;99.90;;;;;;5033957;28;20284;-57
2021/12/15 01:09:49;;;;;;;15.30;6.20;;;-0.70;99.90;;;;;;5033567;28;20223;-55
2021/12/15 01:12:46;;;;;;;24.17;8.80;;;-0.70;99.90;;;;;;5032295;28;20195;-60
2021/12/15 01:20:41;;;;;;;18.97;8.13;;;-0.80;99.90;;;;;;5033796;28;20685;-60
2021/12/15 01:23:11;;;;;;;22.07;8.93;;;-0.80;99.90;;;;;;5033495;28;20620;-57
2021/12/15 01:25:48;;;;;;;27.03;10.67;;;-0.80;99.90;;;;;;5033239;28;20316;-57
2021/12/15 01:28:14;;;;;;;26.57;9.93;;;-0.80;99.90;;;;;;5033415;28;20179;-56
2021/12/15 01:30:43;;;;;;;26.80;10.33;;;-0.90;99.90;;;;;;5015367;28;20228;-63
2021/12/15 01:33:09;;;;;;;22.20;8.80;;;-0.90;99.90;;;;;;5033192;28;20216;-56
2021/12/15 01:35:37;;;;;;;25.30;9.90;;;-0.90;99.90;;;;;;5033392;28;20515;-56
2021/12/15 01:38:04;;;;;;;27.20;11.73;;;-0.90;99.90;;;;;;5033124;28;20183;-55
2021/12/15 01:40:35;;;;;;;25.40;10.23;;;-0.90;99.90;;;;;;5033012;28;20180;-57
2021/12/15 01:43:05;;;;;;;25.10;9.90;;;-1.00;99.90;;;;;;5032987;28;20185;-63
2021/12/15 01:48:15;;;;;;;28.13;11.40;;;-1.00;99.90;;;;;;5033479;28;20620;-55
2021/12/15 01:50:43;;;;;;;29.37;12.67;;;-1.00;99.90;;;;;;5033170;28;20182;-61
2021/12/15 01:53:10;;;;;;;28.67;12.43;;;-1.00;99.90;;;;;;5033020;28;20206;-55
2021/12/15 01:55:36;;;;;;;35.43;13.67;;;-1.00;99.90;;;;;;5033024;28;20187;-55
2021/12/15 01:58:03;;;;;;;36.97;12.73;;;-1.00;99.90;;;;;;5032358;28;20245;-58
2021/12/15 02:00:36;;;;;;;33.47;12.93;;;-1.10;99.90;;;;;;5018991;28;20188;-55
2021/12/15 02:03:02;;;;;;;36.20;11.00;;;-1.10;99.90;;;;;;5012870;28;20169;-58
2021/12/15 02:05:30;;;;;;;32.87;12.10;;;-1.10;99.90;;;;;;4995649;28;20176;-58
2021/12/15 02:07:59;;;;;;;33.27;11.00;;;-1.10;99.90;;;;;;5013065;28;20190;-55
2021/12/15 02:10:28;;;;;;;34.60;12.17;;;-1.00;99.90;;;;;;5012902;28;20202;-55
2021/12/15 02:12:55;;;;;;;31.20;11.87;;;-1.10;99.90;;;;;;5012174;28;20293;-61
2021/12/15 02:15:32;;;;;;;38.43;13.10;;;-1.10;99.90;;;;;;4995327;28;20176;-56
2021/12/15 02:17:58;;;;;;;36.17;12.77;;;-1.10;99.90;;;;;;5012482;28;20534;-58
2021/12/15 02:20:31;;;;;;;38.73;13.73;;;-1.10;99.90;;;;;;5013037;28;20187;-58
2021/12/15 02:22:57;;;;;;;36.20;12.13;;;-1.10;99.90;;;;;;5012427;28;20175;-62
2021/12/15 02:25:23;;;;;;;36.23;13.10;;;-1.00;99.90;;;;;;5012603;28;20184;-58
2021/12/15 02:27:50;;;;;;;29.93;10.43;;;-1.00;99.90;;;;;;5006990;28;20180;-55
2021/12/15 02:30:45;;;;;;;35.47;12.23;;;-1.00;99.90;;;;;;5032469;28;20262;-54
2021/12/15 02:38:36;;;;;;;37.60;11.43;;;-1.00;99.90;;;;;;5032532;28;20574;-57
2021/12/15 02:41:20;;;;;;;27.37;11.20;;;-1.00;99.90;;;;;;5031494;28;20183;-56
2021/12/15 02:43:48;;;;;;;33.93;13.20;;;-1.00;99.90;;;;;;5032271;28;20167;-59
2021/12/15 02:46:14;;;;;;;27.90;11.77;;;-1.00;99.90;;;;;;5032195;28;20199;-58
2021/12/15 02:48:40;;;;;;;34.73;13.00;;;-1.00;99.90;;;;;;5032300;28;20186;-58
2021/12/15 02:51:05;;;;;;;32.03;11.40;;;-1.00;99.90;;;;;;5031930;28;20185;-57
2021/12/15 02:53:31;;;;;;;29.70;12.17;;;-1.00;99.90;;;;;;5014402;28;20178;-55
2021/12/15 02:55:57;;;;;;;31.23;13.07;;;-1.00;99.90;;;;;;5031581;28;20525;-56
2021/12/15 02:58:23;;;;;;;37.03;13.07;;;-1.00;99.90;;;;;;5032144;28;20611;-55
2021/12/15 03:01:02;;;;;;;33.50;11.33;;;-1.00;99.90;;;;;;5014815;28;20282;-56
2021/12/15 03:06:21;;;;;;;37.43;12.83;;;-1.10;99.90;;;;;;5012327;28;20203;-53
2021/12/15 03:08:55;;;;;;;40.23;13.40;;;-1.10;99.90;;;;;;4995733;28;20193;-57
2021/12/15 03:16:52;;;;;;;39.93;12.80;;;-1.10;99.90;;;;;;5012098;28;20670;-59
2021/12/15 03:19:18;;;;;;;31.63;11.33;;;-1.20;99.90;;;;;;5011928;28;20184;-60
2021/12/15 03:21:44;;;;;;;43.00;14.37;;;-1.20;99.90;;;;;;5011959;28;20487;-55
2021/12/15 03:24:17;;;;;;;48.57;15.10;;;-1.10;99.90;;;;;;5012060;28;20186;-55
2021/12/15 03:26:54;;;;;;;41.53;14.87;;;-1.10;99.90;;;;;;5014629;28;20230;-57
2021/12/15 03:35:05;;;;;;;36.73;14.07;;;-1.10;99.90;;;;;;5032850;28;20220;-61
2021/12/15 03:37:37;;;;;;;24.87;10.77;;;-1.10;99.90;;;;;;5035735;28;20167;-57
2021/12/15 03:40:20;;;;;;;45.90;15.13;;;-1.10;99.90;;;;;;5035044;28;20167;-56
2021/12/15 03:42:52;;;;;;;44.53;14.47;;;-1.10;99.90;;;;;;5035232;28;20198;-58
2021/12/15 03:45:32;;;;;;;41.33;14.13;;;-1.10;99.90;;;;;;5035123;28;20174;-55
2021/12/15 03:48:03;;;;;;;41.47;15.93;;;-1.10;99.90;;;;;;5035045;28;20217;-56
2021/12/15 03:50:29;;;;;;;43.17;15.87;;;-1.20;99.90;;;;;;5035163;28;20211;-56
2021/12/15 03:52:56;;;;;;;35.47;12.87;;;-1.20;99.90;;;;;;5017030;28;20221;-59
2021/12/15 03:55:27;;;;;;;38.77;15.27;;;-1.20;99.90;;;;;;5034292;28;20179;-58
2021/12/15 03:57:53;;;;;;;41.73;14.83;;;-1.20;99.90;;;;;;5034716;28;20167;-56
2021/12/15 04:00:20;;;;;;;43.60;14.90;;;-1.20;99.90;;;;;;5022727;28;20183;-57
2021/12/15 04:02:47;;;;;;;48.13;16.57;;;-1.20;99.90;;;;;;5015072;28;20183;-61
2021/12/15 04:05:16;;;;;;;38.43;14.10;;;-1.20;99.90;;;;;;5014935;28;20186;-55
2021/12/15 04:07:42;;;;;;;49.30;17.40;;;-1.20;99.90;;;;;;5015050;28;20203;-57
2021/12/15 04:10:11;;;;;;;42.63;15.30;;;-1.20;99.90;;;;;;5014632;28;20187;-56
2021/12/15 04:12:37;;;;;;;53.00;17.53;;;-1.20;99.90;;;;;;5014411;28;20904;-56
2021/12/15 04:17:44;;;;;;;43.83;15.43;;;-1.20;99.90;;;;;;5014924;28;20511;-57
2021/12/15 04:20:14;;;;;;;51.83;18.13;;;-1.20;99.90;;;;;;5014888;28;20213;-52
2021/12/15 04:22:41;;;;;;;52.77;18.47;;;-1.30;99.90;;;;;;5014734;28;20180;-56
2021/12/15 04:25:18;;;;;;;57.27;20.03;;;-1.30;99.90;;;;;;5014277;28;20322;-55
2021/12/15 04:27:54;;;;;;;55.50;17.20;;;-1.30;99.90;;;;;;5026038;28;20236;-54
2021/12/15 04:30:21;;;;;;;49.67;18.53;;;-1.20;99.90;;;;;;5034121;28;20184;-55
2021/12/15 04:32:49;;;;;;;45.17;18.03;;;-1.20;99.90;;;;;;5034409;28;20210;-54
2021/12/15 04:35:15;;;;;;;30.83;10.90;;;-1.20;99.90;;;;;;5034282;28;20233;-56
2021/12/15 04:37:43;;;;;;;46.03;19.17;;;-1.10;99.90;;;;;;5033862;28;20191;-56
2021/12/15 04:40:12;;;;;;;49.17;17.63;;;-1.20;99.90;;;;;;5033440;28;20710;-57
2021/12/15 04:42:39;;;;;;;42.70;14.83;;;-1.20;99.90;;;;;;5033939;28;20188;-59
2021/12/15 04:45:09;;;;;;;34.23;13.07;;;-1.20;99.90;;;;;;5033598;28;20595;-57
2021/12/15 04:47:35;;;;;;;36.03;12.80;;;-1.30;99.90;;;;;;5034063;28;20235;-55
2021/12/15 04:50:02;;;;;;;33.37;13.40;;;-1.40;99.90;;;;;;5034143;28;20182;-56
2021/12/15 04:52:29;;;;;;;32.77;13.17;;;-1.40;99.90;;;;;;5033659;28;20176;-62
2021/12/15 04:54:57;;;;;;;36.27;13.40;;;-1.40;99.90;;;;;;5016127;28;20183;-62
2021/12/15 04:57:24;;;;;;;21.67;8.97;;;-1.30;99.90;;;;;;5033854;28;20194;-59
2021/12/15 04:59:50;;;;;;;26.17;10.03;;;-1.30;99.90;;;;;;5025094;28;20194;-56
2021/12/15 05:02:19;;;;;;;28.17;11.47;;;-1.40;99.90;;;;;;5013470;28;20181;-55
2021/12/15 05:04:46;;;;;;;34.80;13.47;;;-1.40;99.90;;;;;;5014050;28;20214;-56
2021/12/15 05:07:12;;;;;;;36.60;11.90;;;-1.50;99.90;;;;;;5013804;28;20322;-56
2021/12/15 05:09:39;;;;;;;31.13;11.23;;;-1.50;99.90;;;;;;5013647;28;20179;-57
2021/12/15 05:12:06;;;;;;;33.03;12.10;;;-1.50;99.90;;;;;;5013360;28;20185;-55
2021/12/15 05:14:32;;;;;;;30.80;11.13;;;-1.50;99.90;;;;;;5013109;28;20235;-57
2021/12/15 05:16:57;;;;;;;36.07;12.73;;;-1.60;99.90;;;;;;5013726;28;20250;-54
2021/12/15 05:19:25;;;;;;;29.23;11.70;;;-1.70;99.90;;;;;;5013481;28;20180;-56
2021/12/15 05:21:52;;;;;;;31.83;11.30;;;-1.70;99.90;;;;;;5013146;28;20182;-56
2021/12/15 05:27:00;;;;;;;27.70;11.33;;;-1.80;99.90;;;;;;5017397;28;20545;-59
2021/12/15 05:29:27;;;;;;;28.33;9.87;;;-1.80;99.90;;;;;;5032389;28;20244;-56
2021/12/15 05:31:53;;;;;;;26.57;9.97;;;-1.80;99.90;;;;;;5031810;28;20214;-61
2021/12/15 05:34:20;;;;;;;29.63;10.73;;;-1.80;99.90;;;;;;5032213;28;20179;-54
2021/12/15 05:36:47;;;;;;;30.70;11.53;;;-1.80;99.90;;;;;;5032148;28;20190;-56
2021/12/15 05:39:13;;;;;;;22.03;9.50;;;-1.80;99.90;;;;;;5014728;28;20247;-57
2021/12/15 05:41:39;;;;;;;33.30;11.00;;;-1.80;99.90;;;;;;5014414;28;20591;-56
2021/12/15 05:44:06;;;;;;;28.80;9.93;;;-1.80;99.90;;;;;;5032311;28;20197;-61
2021/12/15 05:46:33;;;;;;;32.93;10.70;;;-1.80;99.90;;;;;;5014162;28;20261;-57
2021/12/15 05:48:59;;;;;;;26.17;10.10;;;-1.80;99.90;;;;;;5031529;28;20174;-58
2021/12/15 05:51:25;;;;;;;25.27;9.53;;;-1.80;99.90;;;;;;5031727;28;20712;-57
2021/12/15 05:53:51;;;;;;;30.80;11.57;;;-1.70;99.90;;;;;;5032096;28;20185;-56
2021/12/15 05:56:18;;;;;;;24.50;8.77;;;-1.70;99.90;;;;;;5029888;28;20539;-62
2021/12/15 05:58:45;;;;;;;26.30;10.07;;;-1.70;99.90;;;;;;5030604;28;20252;-59
2021/12/15 06:01:11;;;;;;;25.53;7.97;;;-1.70;99.90;;;;;;5011301;28;20188;-63
2021/12/15 06:03:37;;;;;;;26.67;10.67;;;-1.70;99.90;;;;;;4993079;28;20190;-57
2021/12/15 06:06:03;;;;;;;34.23;10.37;;;-1.70;99.90;;;;;;5011510;28;20536;-57
2021/12/15 06:08:28;;;;;;;25.33;9.97;;;-1.60;99.90;;;;;;5012403;28;20191;-58
2021/12/15 06:10:54;;;;;;;26.33;9.80;;;-1.70;99.90;;;;;;5010810;28;20178;-62
2021/12/15 06:13:26;;;;;;;24.63;8.90;;;-1.70;99.90;;;;;;5009871;28;20223;-65
2021/12/15 06:15:53;;;;;;;30.10;10.10;;;-1.70;99.90;;;;;;5010836;28;20271;-64
2021/12/15 06:18:20;;;;;;;25.23;9.30;;;-1.70;99.90;;;;;;5015478;28;20206;-62
2021/12/15 06:20:51;;;;;;;21.47;9.13;;;-1.70;99.90;;;;;;5012809;28;20230;-66
2021/12/15 06:23:19;;;;;;;27.20;9.90;;;-1.80;99.90;;;;;;5027345;28;20179;-64
2021/12/15 06:25:58;;;;;;;24.87;9.20;;;-1.80;99.90;;;;;;5011097;28;20191;-62
2021/12/15 06:28:25;;;;;;;23.53;8.10;;;-1.80;99.90;;;;;;5008361;28;20265;-61
2021/12/15 06:30:51;;;;;;;25.40;9.40;;;-1.80;99.90;;;;;;5031243;28;20182;-60
2021/12/15 06:33:17;;;;;;;31.47;11.10;;;-1.70;99.90;;;;;;5025130;28;20271;-64
2021/12/15 06:35:57;;;;;;;23.10;8.80;;;-1.70;99.90;;;;;;5019806;28;20561;-62
2021/12/15 06:38:27;;;;;;;23.27;9.40;;;-1.70;99.90;;;;;;5026889;28;20199;-55
2021/12/15 06:40:53;;;;;;;23.77;9.90;;;-1.70;99.90;;;;;;5031422;28;20178;-62
2021/12/15 06:43:20;;;;;;;23.70;9.77;;;-1.70;99.90;;;;;;5031832;28;20181;-59
2021/12/15 06:46:30;;;;;;;26.83;11.00;;;-1.70;99.90;;;;;;5031487;28;20224;-58
2021/12/15 06:59:32;;;;;;;25.97;10.63;;;-1.90;99.90;;;;;;5025611;28;20187;-61
2021/12/15 07:01:58;;;;;;;30.40;10.67;;;-1.90;99.90;;;;;;5009239;28;20178;-67
2021/12/15 07:04:24;;;;;;;25.63;9.93;;;-2.00;99.90;;;;;;5009024;28;20257;-65
2021/12/15 07:06:51;;;;;;;24.10;9.10;;;-2.00;99.90;;;;;;5009072;28;20214;-65
2021/12/15 07:09:17;;;;;;;26.83;10.40;;;-2.00;99.90;;;;;;5010210;28;20530;-62
2021/12/15 07:11:43;;;;;;;20.03;9.17;;;-2.00;99.90;;;;;;5026141;28;20214;-68
2021/12/15 07:14:09;;;;;;;23.67;9.90;;;-2.00;99.90;;;;;;5034690;28;20218;-65
2021/12/15 07:16:40;;;;;;;25.37;10.80;;;-2.00;99.90;;;;;;5016189;28;20193;-60
2021/12/15 07:19:17;;;;;;;21.43;8.07;;;-2.10;99.90;;;;;;5033139;28;20572;-63
2021/12/15 07:21:53;;;;;;;22.47;8.47;;;-2.10;99.90;;;;;;5033669;28;20154;-60
2021/12/15 07:24:20;;;;;;;26.57;10.00;;;-2.10;99.90;;;;;;5033755;28;20270;-62
2021/12/15 07:26:46;;;;;;;24.23;9.40;;;-2.10;99.90;;;;;;5033929;28;20554;-61
2021/12/15 07:29:11;;;;;;;27.70;10.23;;;-2.10;99.90;;;;;;5031596;28;20185;-61
2021/12/15 07:31:37;;;;;;;20.43;8.23;;;-2.10;99.90;;;;;;4996771;28;20195;-60
2021/12/15 07:34:04;;;;;;;21.17;7.53;;;-2.10;99.90;;;;;;5014939;28;20753;-61
2021/12/15 07:36:30;;;;;;;27.60;9.27;;;-2.10;99.90;;;;;;5015483;28;20595;-62
2021/12/15 07:38:57;;;;;;;22.37;8.33;;;-2.00;99.90;;;;;;5014948;28;20184;-61
2021/12/15 07:41:36;;;;;;;18.30;7.23;;;-2.00;99.90;;;;;;5014970;28;20211;-61
2021/12/15 07:44:03;;;;;;;22.23;8.87;;;-1.90;99.90;;;;;;5014726;28;20159;-61
2021/12/15 07:46:30;;;;;;;19.70;8.43;;;-1.80;99.90;;;;;;5014879;28;20214;-60
2021/12/15 07:48:57;;;;;;;16.97;7.40;;;-1.80;99.90;;;;;;5014263;28;20560;-60
2021/12/15 07:51:22;;;;;;;24.37;9.43;;;-1.60;99.90;;;;;;5014894;28;20183;-61
2021/12/15 07:53:48;;;;;;;22.77;9.33;;;-1.50;99.90;;;;;;5014609;28;20225;-61
2021/12/15 07:56:15;;;;;;;21.83;8.97;;;-1.40;99.90;;;;;;5016213;28;20191;-61
2021/12/15 07:58:42;;;;;;;20.97;9.40;;;-1.30;99.90;;;;;;5034379;28;20171;-61
2021/12/15 08:01:08;;;;;;;22.73;9.13;;;-1.20;99.90;;;;;;5034344;28;20175;-61
2021/12/15 08:03:39;;;;;;;20.67;8.73;;;-1.00;99.90;;;;;;5033436;28;20265;-60
2021/12/15 08:06:05;;;;;;;22.97;10.17;;;-0.90;99.90;;;;;;5034505;28;20246;-61
2021/12/15 08:08:31;;;;;;;26.53;9.37;;;-0.70;99.90;;;;;;5034887;28;20176;-63
2021/12/15 08:10:57;;;;;;;19.80;7.13;;;-0.40;99.90;;;;;;5034423;28;20201;-61
2021/12/15 08:13:26;;;;;;;18.70;8.20;;;-0.20;99.90;;;;;;5034319;28;20230;-60
2021/12/15 08:15:53;;;;;;;17.60;7.93;;;0.00;99.90;;;;;;5016739;28;20181;-62
2021/12/15 08:18:19;;;;;;;22.47;7.63;;;0.10;99.90;;;;;;5033611;28;20197;-61
2021/12/15 08:20:46;;;;;;;12.30;5.57;;;0.30;99.90;;;;;;5033900;28;20180;-60
2021/12/15 08:23:11;;;;;;;14.47;6.83;;;0.40;99.90;;;;;;5034362;28;20171;-63
2021/12/15 08:25:39;;;;;;;20.63;7.40;;;0.40;99.90;;;;;;5034251;28;20195;-60
2021/12/15 08:28:06;;;;;;;19.03;7.67;;;0.40;99.90;;;;;;5015985;28;20184;-59
2021/12/15 08:30:33;;;;;;;16.70;7.33;;;0.50;99.90;;;;;;5003325;28;20178;-61
2021/12/15 08:33:03;;;;;;;24.80;7.53;;;0.50;99.90;;;;;;5013497;28;20178;-80
2021/12/15 08:35:39;;;;;;;12.10;4.70;;;0.60;99.90;;;;;;5014037;28;20180;-61
2021/12/15 08:38:06;;;;;;;12.03;6.20;;;0.70;99.90;;;;;;5014066;28;20156;-61
2021/12/15 08:40:33;;;;;;;12.43;5.10;;;0.70;99.90;;;;;;4996254;28;20313;-62
2021/12/15 08:42:59;;;;;;;17.87;6.97;;;0.80;99.90;;;;;;5013694;28;20182;-61
2021/12/15 08:45:26;;;;;;;13.43;4.67;;;0.90;99.90;;;;;;5013753;28;20683;-62
2021/12/15 08:47:55;;;;;;;10.73;5.70;;;1.00;99.90;;;;;;5013628;28;20211;-60
2021/12/15 08:50:26;;;;;;;12.00;4.80;;;0.90;99.90;;;;;;5013607;28;20178;-60
2021/12/15 08:52:52;;;;;;;11.13;5.50;;;0.90;99.90;;;;;;5014307;28;20189;-65
2021/12/15 08:55:18;;;;;;;13.43;6.60;;;0.90;99.90;;;;;;5013877;28;20174;-60
2021/12/15 08:57:49;;;;;;;12.27;5.57;;;0.90;99.90;;;;;;5013285;28;20257;-61
2021/12/15 09:00:17;;;;;;;11.87;4.77;;;0.80;99.90;;;;;;5013819;28;20178;-61
2021/12/15 09:02:44;;;;;;;11.27;4.40;;;1.00;99.90;;;;;;4995278;28;20178;-60
2021/12/15 09:05:10;;;;;;;9.07;3.37;;;1.00;99.90;;;;;;5013268;28;20174;-61
2021/12/15 09:07:35;;;;;;;5.60;2.80;;;1.10;99.90;;;;;;5013416;28;20236;-61
2021/12/15 09:10:02;;;;;;;8.37;3.10;;;1.20;99.90;;;;;;5013571;28;20180;-60
2021/12/15 09:12:27;;;;;;;8.73;3.37;;;1.30;99.90;;;;;;4995602;28;20530;-66
2021/12/15 09:14:53;;;;;;;6.60;2.70;;;1.30;99.90;;;;;;5013740;28;20358;-62
2021/12/15 09:17:20;;;;;;;6.53;3.10;;;1.40;99.90;;;;;;5013767;28;20193;-61
2021/12/15 09:19:46;;;;;;;5.83;3.07;;;1.50;99.90;;;;;;4995727;28;20171;-61
2021/12/15 09:22:11;;;;;;;5.67;2.43;;;1.40;99.90;;;;;;5013337;28;20247;-61
2021/12/15 09:24:38;;;;;;;5.87;2.67;;;1.40;99.90;;;;;;5013417;28;20179;-62
2021/12/15 09:27:04;;;;;;;6.77;3.27;;;1.50;99.90;;;;;;5013030;28;20558;-61
2021/12/15 09:29:30;;;;;;;6.73;2.57;;;1.50;99.90;;;;;;4999674;28;20224;-61
2021/12/15 09:31:55;;;;;;;13.73;4.03;;;1.60;99.90;;;;;;5031648;28;20182;-60
2021/12/15 09:34:21;;;;;;;20.57;5.70;;;1.60;99.90;;;;;;5013938;28;20206;-61
2021/12/15 09:36:52;;;;;;;5.30;2.37;;;1.90;99.90;;;;;;5032752;28;20520;-61
2021/12/15 09:39:20;;;;;;;7.03;3.50;;;2.10;99.90;;;;;;5032185;28;20170;-61
2021/12/15 09:41:49;;;;;;;10.20;3.87;;;2.10;99.90;;;;;;5032725;28;20183;-60
2021/12/15 09:44:18;;;;;;;10.80;4.27;;;2.00;99.90;;;;;;5032066;28;20191;-62
2021/12/15 10:02:01;;;;;;;22.67;5.80;;;2.00;99.90;;;;;;5017610;28;20189;-61
2021/12/15 10:03:44;;;;;;;15.43;4.30;;;2.20;99.90;;;;;;5031729;28;20258;-60
2021/12/15 10:20:26;;;;;;;8.00;3.47;;;2.00;99.90;;;;;;4931527;29;20201;-62
2021/12/15 10:22:58;;;;;;;6.87;2.67;;;2.00;99.90;;;;;;4932152;29;20192;-63
2021/12/15 10:25:26;;;;;;;8.23;4.27;;;2.00;99.90;;;;;;4991864;28;20200;-62
2021/12/15 10:28:03;;;;;;;10.33;3.13;;;1.90;99.90;;;;;;5031976;28;20210;-62
2021/12/15 10:30:33;;;;;;;14.97;5.20;;;1.80;99.90;;;;;;5019564;28;20174;-61
2021/12/15 10:33:05;;;;;;;17.73;5.87;;;1.80;99.90;;;;;;5012400;28;20182;-63
2021/12/15 10:35:43;;;;;;;25.27;5.47;;;1.80;99.90;;;;;;5011963;28;20170;-62
2021/12/15 10:38:18;;;;;;;17.93;5.47;;;1.90;99.90;;;;;;5011754;28;20185;-62
2021/12/15 10:41:08;;;;;;;12.03;5.10;;;2.10;99.90;;;;;;5011719;28;20193;-60
2021/12/15 10:43:56;;;;;;;15.83;5.30;;;2.20;99.90;;;;;;5012046;28;20176;-62
2021/12/15 10:46:29;;;;;;;21.77;5.40;;;2.20;99.90;;;;;;5011820;28;20535;-62
2021/12/15 10:48:58;;;;;;;14.70;5.60;;;2.00;99.90;;;;;;4994337;28;20615;-59
2021/12/15 10:51:33;;;;;;;14.87;5.30;;;2.00;99.90;;;;;;5011541;28;20219;-62
2021/12/15 10:54:13;;;;;;;11.97;5.20;;;2.00;99.90;;;;;;5011861;28;20167;-61
2021/12/15 10:57:09;;;;;;;12.87;4.30;;;2.20;99.90;;;;;;5015197;28;20186;-62
2021/12/15 10:59:56;;;;;;;23.53;5.80;;;2.20;99.90;;;;;;5023554;28;20241;-62
2021/12/15 11:02:25;;;;;;;13.93;5.30;;;2.30;99.90;;;;;;5030134;28;20337;-62
2021/12/15 11:04:59;;;;;;;21.80;5.27;;;2.30;99.90;;;;;;5029335;28;20194;-65
2021/12/15 11:07:36;;;;;;;20.80;5.13;;;2.30;99.90;;;;;;5011771;28;20255;-61
2021/12/15 11:10:13;;;;;;;14.80;4.53;;;2.30;99.90;;;;;;5029847;28;20175;-65
2021/12/15 11:12:48;;;;;;;18.43;6.37;;;2.40;99.90;;;;;;5029047;28;20227;-62
2021/12/15 11:15:26;;;;;;;27.70;4.93;;;2.50;99.90;;;;;;5030386;28;20206;-61
2021/12/15 11:17:53;;;;;;;14.43;4.60;;;2.60;99.90;;;;;;5031187;28;20555;-61
2021/12/15 11:20:29;;;;;;;13.47;3.53;;;2.50;99.90;;;;;;5031349;28;20179;-61
2021/12/15 11:23:03;;;;;;;11.20;3.80;;;2.20;99.90;;;;;;5030994;28;20363;-61
2021/12/15 11:25:42;;;;;;;14.57;5.20;;;2.20;99.90;;;;;;5030098;28;20660;-62
2021/12/15 11:28:10;;;;;;;11.03;4.20;;;2.30;99.90;;;;;;5031239;28;20351;-63
2021/12/15 11:30:51;;;;;;;14.07;4.90;;;2.40;99.90;;;;;;5013443;28;20198;-61
2021/12/15 11:33:32;;;;;;;16.37;5.50;;;2.50;99.90;;;;;;5031185;28;20580;-60
2021/12/15 11:36:25;;;;;;;10.80;4.73;;;2.70;99.90;;;;;;5030675;28;20182;-61
2021/12/15 11:38:58;;;;;;;14.67;5.47;;;2.70;99.90;;;;;;5030816;28;20201;-61
2021/12/15 11:41:36;;;;;;;10.23;3.67;;;2.70;99.90;;;;;;5030603;28;20171;-62
2021/12/15 11:44:14;;;;;;;11.60;4.57;;;2.70;99.90;;;;;;5031463;28;20206;-61
2021/12/15 11:46:48;;;;;;;16.07;4.43;;;2.70;99.90;;;;;;5030554;28;20206;-60
2021/12/15 11:49:13;;;;;;;11.43;5.00;;;2.80;99.90;;;;;;5030918;28;20159;-65
2021/12/15 11:51:47;;;;;;;10.60;4.40;;;2.60;99.90;;;;;;5030776;28;20171;-62
2021/12/15 11:54:34;;;;;;;10.37;3.67;;;2.60;99.90;;;;;;5030122;28;20500;-60
2021/12/15 11:57:06;;;;;;;9.63;3.77;;;2.50;99.90;;;;;;5032663;28;20159;-61
2021/12/15 11:59:38;;;;;;;8.40;3.60;;;2.40;99.90;;;;;;5034029;28;20193;-60
2021/12/15 12:02:20;;;;;;;12.00;4.33;;;2.50;99.90;;;;;;5034217;28;20174;-62
2021/12/15 12:04:49;;;;;;;5.73;2.97;;;2.50;99.90;;;;;;5034043;28;20151;-61
2021/12/15 12:07:21;;;;;;;9.70;4.40;;;2.60;99.90;;;;;;5033897;28;20220;-62
2021/12/15 12:09:52;;;;;;;8.77;3.87;;;2.70;99.90;;;;;;5033821;28;20228;-62
2021/12/15 12:12:21;;;;;;;10.30;4.87;;;2.50;99.90;;;;;;5033448;28;20518;-62
2021/12/15 12:14:49;;;;;;;10.27;4.70;;;2.50;99.90;;;;;;5033980;28;20253;-60
2021/12/15 12:17:22;;;;;;;10.73;4.03;;;2.50;99.90;;;;;;5016313;28;20240;-62
2021/12/15 12:19:55;;;;;;;11.37;4.27;;;2.40;99.90;;;;;;5034512;28;20202;-62
2021/12/15 12:22:24;;;;;;;7.50;4.10;;;2.40;99.90;;;;;;5033492;28;20194;-60
2021/12/15 12:24:53;;;;;;;11.87;4.17;;;2.30;99.90;;;;;;5033983;28;20179;-65
2021/12/15 12:27:22;;;;;;;9.00;3.50;;;2.10;99.90;;;;;;5033570;28;20218;-62
2021/12/15 12:29:51;;;;;;;9.13;4.30;;;2.00;99.90;;;;;;5033393;28;20542;-61
2021/12/15 12:32:17;;;;;;;14.23;4.57;;;2.00;99.90;;;;;;5033876;28;20203;-61
2021/12/15 12:34:43;;;;;;;10.50;5.23;;;2.00;99.90;;;;;;5033229;28;20264;-62
2021/12/15 12:37:11;;;;;;;12.53;4.37;;;1.90;99.90;;;;;;5033727;28;20187;-62
2021/12/15 12:39:38;;;;;;;10.40;4.37;;;2.10;99.90;;;;;;5016138;28;20178;-60
2021/12/15 12:42:05;;;;;;;12.60;5.30;;;2.10;99.90;;;;;;5033909;28;20185;-62
2021/12/15 12:44:45;;;;;;;10.87;5.03;;;1.90;99.90;;;;;;5033845;28;20603;-62
2021/12/15 12:47:30;;;;;;;9.60;4.27;;;1.90;99.90;;;;;;5033455;28;20213;-62
2021/12/15 12:50:30;;;;;;;15.17;5.37;;;1.70;99.90;;;;;;5033615;28;20162;-64
2021/12/15 13:01:13;;;;;;;11.33;5.40;;;1.60;99.90;;;;;;5033113;28;20245;-62
2021/12/15 13:03:51;;;;;;;13.73;6.00;;;1.50;99.90;;;;;;5033357;28;20590;-61
2021/12/15 13:06:37;;;;;;;15.10;5.67;;;1.50;99.90;;;;;;5033110;28;20218;-62
2021/12/15 13:09:16;;;;;;;13.37;5.70;;;1.50;99.90;;;;;;5033520;28;20173;-62
2021/12/15 13:11:46;;;;;;;11.80;6.23;;;1.50;99.90;;;;;;5033108;28;20626;-66
2021/12/15 13:14:33;;;;;;;11.80;6.50;;;1.60;99.90;;;;;;5032904;28;20606;-62
2021/12/15 13:17:03;;;;;;;14.13;6.90;;;1.60;99.90;;;;;;5033174;28;20178;-61
2021/12/15 13:19:41;;;;;;;16.87;7.57;;;1.70;99.90;;;;;;5033344;28;20266;-61
2021/12/15 13:22:24;;;;;;;13.33;5.93;;;1.70;99.90;;;;;;5032312;28;20163;-78
2021/12/15 13:30:38;;;;;;;14.30;7.07;;;1.70;99.90;;;;;;5018719;28;20187;-60
2021/12/15 13:33:11;;;;;;;14.97;7.20;;;1.80;99.90;;;;;;5012742;28;20186;-61
2021/12/15 13:35:52;;;;;;;14.43;7.60;;;1.70;99.90;;;;;;5013361;28;20171;-60
2021/12/15 13:38:36;;;;;;;13.90;6.97;;;1.60;99.90;;;;;;5012368;28;20675;-62
2021/12/15 13:41:14;;;;;;;17.73;7.40;;;1.60;99.90;;;;;;5013276;28;20163;-61
2021/12/15 13:44:30;;;;;;;14.83;6.63;;;1.60;99.90;;;;;;5012656;28;20170;-61
2021/12/15 13:47:20;;;;;;;12.73;5.23;;;1.60;99.90;;;;;;5008387;28;20211;-61
2021/12/15 13:50:20;;;;;;;18.90;7.70;;;1.60;99.90;;;;;;5012276;28;20237;-60
2021/12/15 13:52:52;;;;;;;14.60;6.73;;;1.60;99.90;;;;;;5012041;28;20202;-62
2021/12/15 13:55:30;;;;;;;17.97;7.23;;;1.50;99.90;;;;;;4996238;28;20574;-60
2021/12/15 13:58:18;;;;;;;14.87;7.23;;;1.50;99.90;;;;;;5012985;28;20167;-60
2021/12/15 14:00:57;;;;;;;12.20;5.83;;;1.50;99.90;;;;;;5012461;28;20527;-65
2021/12/15 14:03:23;;;;;;;14.70;6.50;;;1.50;99.90;;;;;;5012367;28;20244;-60
2021/12/15 14:06:06;;;;;;;11.23;6.43;;;1.40;99.90;;;;;;5012371;28;20254;-67
2021/12/15 14:08:38;;;;;;;12.77;5.47;;;1.40;99.90;;;;;;5012511;28;20179;-62
2021/12/15 14:11:28;;;;;;;13.03;5.83;;;1.40;99.90;;;;;;5012559;28;20566;-63
2021/12/15 14:14:00;;;;;;;11.43;5.40;;;1.40;99.90;;;;;;4994509;28;20235;-64
2021/12/15 14:16:31;;;;;;;13.63;5.67;;;1.40;99.90;;;;;;5012184;28;20178;-60
2021/12/15 14:18:59;;;;;;;12.30;6.23;;;1.40;99.90;;;;;;5011959;28;20178;-60
2021/12/15 14:21:25;;;;;;;12.77;6.27;;;1.40;99.90;;;;;;5012305;28;20255;-62